createdAt,value
2022-11-10T00:00:00.311Z,100899.44
2022-11-10T00:02:28.092Z,100901.50
2022-11-10T00:04:55.896Z,100906.13
2022-11-10T00:07:25.634Z,100911.13
2022-11-10T00:09:55.436Z,100910.91
2022-11-10T00:12:23.703Z,100920.53
2022-11-10T00:15:08.983Z,100918.63
2022-11-10T00:17:37.826Z,100922.00
2022-11-10T00:20:06.894Z,100927.88
2022-11-10T00:22:35.648Z,100931.63
2022-11-10T00:25:05.605Z,100926.81
2022-11-10T00:27:33.888Z,100934.13
2022-11-10T00:30:01.997Z,100941.22
2022-11-10T00:32:29.676Z,100934.53
2022-11-10T00:34:57.383Z,100951.69
2022-11-10T00:37:25.105Z,100953.97
2022-11-10T00:39:52.852Z,100950.44
2022-11-10T00:42:21.925Z,100948.53
2022-11-10T00:44:49.771Z,100955.03
2022-11-10T00:47:17.705Z,100953.56
2022-11-10T00:49:45.519Z,100956.50
2022-11-10T00:52:13.877Z,100960.66
2022-11-10T00:54:41.608Z,100959.22
2022-11-10T00:57:09.300Z,100960.03
2022-11-10T00:59:38.338Z,100964.44
2022-11-10T01:02:06.054Z,100968.19
2022-11-10T01:04:33.973Z,100960.47
2022-11-10T01:07:01.808Z,100979.25
2022-11-10T01:09:30.060Z,100974.66
2022-11-10T01:11:57.987Z,100975.47
2022-11-10T01:14:25.772Z,100984.06
2022-11-10T01:16:55.053Z,100979.66
2022-11-10T01:19:22.794Z,100986.38
2022-11-10T01:21:52.015Z,100988.88
2022-11-10T01:24:22.555Z,100988.66
2022-11-10T01:26:50.894Z,100991.75
2022-11-10T01:29:18.743Z,100990.94
2022-11-10T01:31:46.554Z,101000.56
2022-11-10T01:34:17.209Z,100990.69
2022-11-10T01:36:44.917Z,100995.06
2022-11-10T01:39:12.952Z,101007.19
2022-11-10T01:41:40.794Z,101004.69
2022-11-10T01:44:17.249Z,101010.50
2022-11-10T01:46:45.131Z,101010.72
2022-11-10T01:49:14.420Z,101011.16
2022-11-10T01:51:50.105Z,101013.06
2022-11-10T01:54:23.101Z,101006.31
2022-11-10T01:56:54.344Z,101018.38
2022-11-10T01:59:26.604Z,101016.09
2022-11-10T02:01:59.427Z,101014.41
2022-11-10T02:04:28.107Z,101017.50
2022-11-10T02:06:57.815Z,101023.31
2022-11-10T02:09:26.354Z,101021.88
2022-11-10T02:11:56.543Z,101029.66
2022-11-10T02:14:24.385Z,101035.53
2022-11-10T02:16:52.420Z,101032.16
2022-11-10T02:19:23.502Z,101038.63
2022-11-10T02:21:52.913Z,101036.72
2022-11-10T02:24:20.783Z,101045.00
2022-11-10T02:26:54.848Z,101053.59
2022-11-10T02:29:23.673Z,101040.47
2022-11-10T02:31:51.345Z,101052.56
2022-11-10T02:34:19.175Z,101047.94
2022-11-10T02:36:46.920Z,101051.25
2022-11-10T02:39:16.087Z,101047.31
2022-11-10T02:41:43.799Z,101059.44
2022-11-10T02:44:11.545Z,101065.06
2022-11-10T02:46:39.234Z,101065.50
2022-11-10T02:49:07.996Z,101064.03
2022-11-10T02:51:35.716Z,101075.72
2022-11-10T02:54:03.779Z,101073.63
2022-11-10T02:56:35.334Z,101071.34
2022-11-10T02:59:03.300Z,101079.28
2022-11-10T03:01:32.327Z,101079.69
2022-11-10T03:04:00.148Z,101067.06
2022-11-10T03:06:27.874Z,101068.34
2022-11-10T03:08:55.892Z,101078.31
2022-11-10T03:11:26.826Z,101081.28
2022-11-10T03:14:02.081Z,101086.31
2022-11-10T03:16:30.493Z,101100.06
2022-11-10T03:18:58.736Z,101101.31
2022-11-10T03:21:26.427Z,101101.50
2022-11-10T03:23:54.149Z,101100.84
2022-11-10T03:26:23.007Z,101104.19
2022-11-10T03:28:50.782Z,101105.84
2022-11-10T03:31:20.030Z,101119.16
2022-11-10T03:33:47.766Z,101108.13
2022-11-10T03:36:15.483Z,101121.84
2022-11-10T03:38:43.204Z,101116.63
2022-11-10T03:41:20.036Z,101115.59
2022-11-10T03:43:48.375Z,101123.75
2022-11-10T03:46:16.271Z,101123.88
2022-11-10T03:48:51.792Z,101124.88
2022-11-10T03:51:20.883Z,101128.06
2022-11-10T03:53:48.608Z,101124.44
2022-11-10T03:56:16.470Z,101135.47
2022-11-10T03:58:44.153Z,101139.06
2022-11-10T04:01:11.875Z,101140.50
2022-11-10T04:03:39.653Z,101140.72
2022-11-10T04:06:29.524Z,101143.63
2022-11-10T04:09:00.360Z,101153.44
2022-11-10T04:11:47.971Z,101158.69
2022-11-10T04:14:33.687Z,101171.22
2022-11-10T04:17:01.442Z,101164.94
2022-11-10T04:19:29.994Z,101162.22
2022-11-10T04:21:59.192Z,101163.00
2022-11-10T04:24:27.011Z,101166.50
2022-11-10T04:26:54.997Z,101165.66
2022-11-10T04:29:22.754Z,101164.19
2022-11-10T04:31:50.507Z,101171.91
2022-11-10T04:34:18.192Z,101178.38
2022-11-10T04:36:46.080Z,101180.72
2022-11-10T04:39:15.165Z,101181.94
2022-11-10T04:41:43.007Z,101193.53
2022-11-10T04:44:10.809Z,101197.47
2022-11-10T04:46:39.885Z,101190.63
2022-11-10T04:49:08.680Z,101205.41
2022-11-10T04:51:38.223Z,101205.63
2022-11-10T04:54:07.393Z,101211.03
2022-11-10T04:56:37.076Z,101218.16
2022-11-10T04:59:05.001Z,101223.56
2022-11-10T05:01:32.798Z,101228.81
2022-11-10T05:04:01.036Z,101234.63
2022-11-10T05:06:29.061Z,101234.03
2022-11-10T05:08:56.827Z,101235.25
2022-11-10T05:11:24.542Z,101237.78
2022-11-10T05:13:53.647Z,101233.56
2022-11-10T05:16:23.450Z,101240.25
2022-11-10T05:18:54.173Z,101237.69
2022-11-10T05:21:22.218Z,101237.97
2022-11-10T05:23:50.000Z,101238.56
2022-11-10T05:26:21.597Z,101231.84
2022-11-10T05:28:49.357Z,101241.47
2022-11-10T05:31:18.421Z,101241.63
2022-11-10T05:33:46.196Z,101248.09
2022-11-10T05:36:13.945Z,101248.38
2022-11-10T05:38:43.758Z,101253.13
2022-11-10T05:41:12.544Z,101244.72
2022-11-10T05:43:40.902Z,101252.41
2022-11-10T05:46:08.663Z,101264.84
2022-11-10T05:48:37.715Z,101268.22
2022-11-10T05:51:05.715Z,101268.03
2022-11-10T05:53:33.471Z,101267.34
2022-11-10T05:56:01.295Z,101276.41
2022-11-10T05:58:29.054Z,101276.47
2022-11-10T06:00:58.837Z,101285.91
2022-11-10T06:03:26.877Z,101282.16
2022-11-10T06:05:56.989Z,101288.00
2022-11-10T06:08:25.040Z,101299.94
2022-11-10T06:10:53.628Z,101307.25
2022-11-10T06:13:21.771Z,101315.13
2022-11-10T06:15:50.698Z,101329.03
2022-11-10T06:18:18.705Z,101332.44
2022-11-10T06:20:47.489Z,101333.56
2022-11-10T06:23:17.037Z,101336.63
2022-11-10T06:25:45.598Z,101332.06
2022-11-10T06:28:14.682Z,101335.78
2022-11-10T06:30:42.503Z,101337.00
2022-11-10T06:33:10.912Z,101335.78
2022-11-10T06:35:38.817Z,101332.81
2022-11-10T06:38:08.650Z,101346.56
2022-11-10T06:40:37.788Z,101349.84
2022-11-10T06:43:05.559Z,101356.56
2022-11-10T06:45:33.233Z,101360.31
2022-11-10T06:48:02.428Z,101368.44
2022-11-10T06:50:30.670Z,101372.84
2022-11-10T06:53:00.344Z,101389.94
2022-11-10T06:55:28.588Z,101388.72
2022-11-10T06:57:58.004Z,101401.47
2022-11-10T07:00:26.623Z,101403.69
2022-11-10T07:03:02.216Z,101406.13
2022-11-10T07:05:30.782Z,101408.09
2022-11-10T07:08:02.913Z,101403.88
2022-11-10T07:10:30.592Z,101413.13
2022-11-10T07:13:00.136Z,101406.50
2022-11-10T07:15:27.995Z,101414.91
2022-11-10T07:17:56.078Z,101422.47
2022-11-10T07:20:23.919Z,101424.47
2022-11-10T07:22:58.065Z,101425.38
2022-11-10T07:25:25.990Z,101418.94
2022-11-10T07:27:57.449Z,101430.63
2022-11-10T07:30:27.686Z,101440.06
2022-11-10T07:32:59.929Z,101445.22
2022-11-10T07:35:28.414Z,101451.97
2022-11-10T07:37:56.362Z,101450.06
2022-11-10T07:40:24.469Z,101453.53
2022-11-10T07:42:52.308Z,101464.31
2022-11-10T07:45:20.157Z,101464.13
2022-11-10T07:47:50.175Z,101464.94
2022-11-10T07:50:18.211Z,101470.38
2022-11-10T07:52:46.088Z,101470.84
2022-11-10T07:55:13.866Z,101479.63
2022-11-10T07:57:43.818Z,101483.47
2022-11-10T08:00:13.485Z,101479.09
2022-11-10T08:02:41.339Z,101495.06
2022-11-10T08:05:10.818Z,101501.28
2022-11-10T08:07:38.697Z,101503.25
2022-11-10T08:10:07.469Z,101508.66
2022-11-10T08:12:35.136Z,101512.69
2022-11-10T08:15:02.818Z,101528.22
2022-11-10T08:17:30.544Z,101530.59
2022-11-10T08:19:58.259Z,101530.94
2022-11-10T08:22:27.405Z,101550.81
2022-11-10T08:24:55.099Z,101547.41
2022-11-10T08:27:22.796Z,101565.69
2022-11-10T08:29:50.889Z,101550.78
2022-11-10T08:32:18.563Z,101565.41
2022-11-10T08:34:46.332Z,101571.84
2022-11-10T08:37:14.008Z,101574.94
2022-11-10T08:39:43.398Z,101580.38
2022-11-10T08:42:11.163Z,101578.59
2022-11-10T08:44:39.020Z,101572.13
2022-11-10T08:47:06.720Z,101576.53
2022-11-10T08:49:34.415Z,101576.63
2022-11-10T08:52:02.132Z,101580.75
2022-11-10T08:54:30.078Z,101576.72
2022-11-10T08:56:59.212Z,101585.91
2022-11-10T08:59:26.879Z,101594.97
2022-11-10T09:01:54.604Z,101592.25
2022-11-10T09:04:22.425Z,101596.66
2022-11-10T09:06:50.198Z,101599.28
2022-11-10T09:09:17.951Z,101598.53
2022-11-10T09:11:45.660Z,101608.28
2022-11-10T09:14:14.716Z,101607.63
2022-11-10T09:16:42.408Z,101610.44
2022-11-10T09:19:12.291Z,101611.72
2022-11-10T09:21:43.257Z,101616.56
2022-11-10T09:24:11.818Z,101617.63
2022-11-10T09:26:39.617Z,101615.75
2022-11-10T09:29:07.276Z,101616.78
2022-11-10T09:31:36.286Z,101622.47
2022-11-10T09:34:04.617Z,101622.97
2022-11-10T09:36:32.439Z,101630.59
2022-11-10T09:39:00.087Z,101619.28
2022-11-10T09:41:29.828Z,101630.63
2022-11-10T09:44:05.190Z,101634.84
2022-11-10T09:46:39.361Z,101640.09
2022-11-10T09:49:21.557Z,101639.25
2022-11-10T09:51:50.073Z,101635.03
2022-11-10T09:54:31.765Z,101643.84
2022-11-10T09:57:01.149Z,101640.75
2022-11-10T09:59:32.167Z,101646.56
2022-11-10T10:02:05.388Z,101643.84
2022-11-10T10:05:04.487Z,101640.75
2022-11-10T10:07:39.687Z,101638.31
2022-11-10T10:10:17.529Z,101644.09
2022-11-10T10:13:10.979Z,101639.69
2022-11-10T10:15:50.545Z,101643.72
2022-11-10T10:18:30.059Z,101645.84
2022-11-10T10:21:18.341Z,101642.50
2022-11-10T10:26:41.000Z,101654.28
2022-11-10T10:29:11.485Z,101659.22
2022-11-10T10:31:43.082Z,101655.22
2022-11-10T10:34:17.624Z,101656.97
2022-11-10T10:36:46.493Z,101651.97
2022-11-10T10:39:17.436Z,101655.00
2022-11-10T10:41:47.006Z,101650.41
2022-11-10T10:44:16.824Z,101647.09
2022-11-10T10:46:47.762Z,101649.19
2022-11-10T10:49:28.467Z,101639.59
2022-11-10T10:52:04.063Z,101647.38
2022-11-10T10:54:33.549Z,101651.78
2022-11-10T10:57:07.356Z,101659.94
2022-11-10T10:59:35.541Z,101658.06
2022-11-10T11:02:03.320Z,101661.78
2022-11-10T11:04:35.425Z,101667.25
2022-11-10T11:07:05.861Z,101669.84
2022-11-10T11:09:41.837Z,101665.44
2022-11-10T11:12:12.466Z,101666.06
2022-11-10T11:14:44.811Z,101660.91
2022-11-10T11:17:18.861Z,101665.13
2022-11-10T11:19:58.513Z,101677.94
2022-11-10T11:22:50.172Z,101682.94
2022-11-10T11:25:27.165Z,101685.09
2022-11-10T11:28:04.755Z,101686.19
2022-11-10T11:30:46.771Z,101691.41
2022-11-10T11:33:22.800Z,101680.78
2022-11-10T11:35:59.416Z,101682.75
2022-11-10T11:38:33.099Z,101689.47
2022-11-10T11:41:12.386Z,101694.78
2022-11-10T11:44:14.538Z,101688.56
2022-11-10T11:46:49.440Z,101689.69
2022-11-10T11:49:35.277Z,101696.09
2022-11-10T11:52:12.125Z,101695.25
2022-11-10T11:54:55.077Z,101697.22
2022-11-10T11:57:40.003Z,101704.06
2022-11-10T12:00:14.040Z,101700.88
2022-11-10T12:03:11.854Z,101695.44
2022-11-10T12:05:51.864Z,101698.63
2022-11-10T12:08:30.647Z,101707.03
2022-11-10T12:11:09.542Z,101704.94
2022-11-10T12:13:51.839Z,101708.72
2022-11-10T12:16:25.321Z,101718.00
2022-11-10T12:19:03.426Z,101709.06
2022-11-10T12:21:38.977Z,101733.66
2022-11-10T12:24:21.858Z,101731.03
2022-11-10T12:26:55.049Z,101723.09
2022-11-10T12:29:30.549Z,101718.78
2022-11-10T12:32:04.596Z,101718.44
2022-11-10T12:34:40.588Z,101715.88
2022-11-10T12:37:15.924Z,101733.13
2022-11-10T12:39:54.808Z,101724.91
2022-11-10T12:42:25.544Z,101720.06
2022-11-10T12:45:00.679Z,101723.06
2022-11-10T12:47:32.998Z,101728.69
2022-11-10T12:50:20.740Z,101719.47
2022-11-10T12:52:54.491Z,101720.03
2022-11-10T12:55:34.357Z,101717.72
2022-11-10T12:58:04.542Z,101719.56
2022-11-10T13:00:39.158Z,101731.94
2022-11-10T13:03:15.344Z,101729.56
2022-11-10T13:05:56.351Z,101733.78
2022-11-10T13:08:34.807Z,101735.28
2022-11-10T13:11:09.448Z,101746.34
2022-11-10T13:13:47.108Z,101743.75
2022-11-10T13:16:52.071Z,101749.63
2022-11-10T13:19:52.643Z,101753.38
2022-11-10T13:22:37.769Z,101761.34
2022-11-10T13:25:42.568Z,101761.34
2022-11-10T13:28:13.790Z,101761.09
2022-11-10T13:30:46.588Z,101774.94
2022-11-10T13:33:37.166Z,101772.31
2022-11-10T13:36:07.120Z,101774.22
2022-11-10T13:38:38.485Z,101775.72
2022-11-10T13:41:27.476Z,101784.72
2022-11-10T13:43:58.787Z,101779.91
2022-11-10T13:46:38.768Z,101784.72
2022-11-10T13:49:28.380Z,101783.88
2022-11-10T13:52:06.956Z,101786.16
2022-11-10T13:54:53.823Z,101781.16
2022-11-10T13:57:31.128Z,101787.19
2022-11-10T14:00:02.688Z,101786.97
2022-11-10T14:02:51.157Z,101780.28
2022-11-10T14:06:03.364Z,101785.13
2022-11-10T14:08:38.798Z,101783.44
2022-11-10T14:11:14.352Z,101783.44
2022-11-10T14:13:45.154Z,101780.03
2022-11-10T14:16:19.732Z,101790.13
2022-11-10T14:18:52.657Z,101785.91
2022-11-10T14:21:29.895Z,101790.47
2022-11-10T14:24:04.308Z,101796.53
2022-11-10T14:26:36.281Z,101792.78
2022-11-10T14:29:28.173Z,101802.00
2022-11-10T14:31:58.068Z,101803.88
2022-11-10T14:34:26.238Z,101811.19
2022-11-10T14:36:56.090Z,101808.25
2022-11-10T14:39:32.753Z,101805.53
2022-11-10T14:42:03.317Z,101810.94
2022-11-10T14:44:32.475Z,101806.56
2022-11-10T14:47:16.010Z,101817.44
2022-11-10T14:49:44.915Z,101803.63
2022-11-10T14:52:15.500Z,101815.75
2022-11-10T14:54:49.365Z,101818.69
2022-11-10T14:57:19.597Z,101819.91
2022-11-10T14:59:47.754Z,101826.59
2022-11-10T15:02:19.940Z,101820.94
2022-11-10T15:04:51.044Z,101830.53
2022-11-10T15:07:19.847Z,101822.16
2022-11-10T15:10:06.920Z,101829.06
2022-11-10T15:12:38.182Z,101838.06
2022-11-10T15:15:20.295Z,101836.56
2022-11-10T15:17:51.277Z,101832.16
2022-11-10T15:20:37.236Z,101835.06
2022-11-10T15:23:13.377Z,101838.38
2022-11-10T15:25:42.158Z,101836.69
2022-11-10T15:28:24.122Z,101846.56
2022-11-10T15:30:55.043Z,101845.06
2022-11-10T15:33:27.245Z,101840.25
2022-11-10T15:35:56.267Z,101846.34
2022-11-10T15:38:32.500Z,101836.69
2022-11-10T15:41:12.678Z,101843.38
2022-11-10T15:43:40.616Z,101837.91
2022-11-10T15:46:18.100Z,101835.97
2022-11-10T15:48:49.944Z,101835.53
2022-11-10T15:51:24.692Z,101846.41
2022-11-10T15:53:56.526Z,101844.44
2022-11-10T15:56:25.731Z,101856.16
2022-11-10T15:59:00.644Z,101863.31
2022-11-10T16:01:29.936Z,101865.00
2022-11-10T16:03:59.343Z,101867.06
2022-11-10T16:06:27.434Z,101877.94
2022-11-10T16:08:55.390Z,101876.28
2022-11-10T16:11:24.603Z,101871.78
2022-11-10T16:13:53.659Z,101874.31
2022-11-10T16:16:23.809Z,101865.69
2022-11-10T16:18:54.420Z,101867.28
2022-11-10T16:21:25.564Z,101865.78
2022-11-10T16:23:53.987Z,101868.91
2022-11-10T16:26:24.592Z,101868.72
2022-11-10T16:28:52.379Z,101877.06
2022-11-10T16:31:22.377Z,101880.16
2022-11-10T16:33:50.718Z,101892.53
2022-11-10T16:36:25.553Z,101902.50
2022-11-10T16:38:54.413Z,101906.53
2022-11-10T16:41:22.751Z,101914.22
2022-11-10T16:43:50.688Z,101910.47
2022-11-10T16:46:22.606Z,101918.16
2022-11-10T16:48:52.300Z,101918.34
2022-11-10T16:51:27.771Z,101910.38
2022-11-10T16:53:59.357Z,101906.34
2022-11-10T16:56:27.308Z,101906.44
2022-11-10T16:58:55.937Z,101901.38
2022-11-10T17:01:28.571Z,101908.50
2022-11-10T17:03:59.589Z,101911.41
2022-11-10T17:06:32.473Z,101914.97
2022-11-10T17:09:07.737Z,101922.94
2022-11-10T17:11:36.213Z,101932.44
2022-11-10T17:14:04.263Z,101927.16
2022-11-10T17:16:34.683Z,101938.22
2022-11-10T17:19:04.773Z,101934.88
2022-11-10T17:21:35.173Z,101929.78
2022-11-10T17:24:05.671Z,101925.75
2022-11-10T17:26:35.221Z,101925.28
2022-11-10T17:29:03.098Z,101927.84
2022-11-10T17:31:31.382Z,101937.16
2022-11-10T17:33:59.427Z,101934.19
2022-11-10T17:36:27.331Z,101925.50
2022-11-10T17:38:55.447Z,101932.44
2022-11-10T17:41:24.525Z,101936.38
2022-11-10T17:43:52.370Z,101928.47
2022-11-10T17:46:20.172Z,101937.38
2022-11-10T17:48:48.079Z,101923.28
2022-11-10T17:51:19.983Z,101926.00
2022-11-10T17:53:48.226Z,101926.84
2022-11-10T17:56:16.282Z,101934.34
2022-11-10T17:58:45.397Z,101933.97
2022-11-10T18:01:17.139Z,101936.88
2022-11-10T18:03:45.780Z,101938.94
2022-11-10T18:06:14.941Z,101947.75
2022-11-10T18:08:43.536Z,101944.00
2022-11-10T18:11:12.923Z,101948.25
2022-11-10T18:13:42.263Z,101954.16
2022-11-10T18:16:12.731Z,101946.06
2022-11-10T18:18:41.749Z,101938.56
2022-11-10T18:21:10.991Z,101935.91
2022-11-10T18:23:38.789Z,101938.63
2022-11-10T18:26:08.097Z,101937.03
2022-11-10T18:28:36.668Z,101938.72
2022-11-10T18:31:07.927Z,101943.63
2022-11-10T18:33:37.837Z,101942.47
2022-11-10T18:36:06.361Z,101930.75
2022-11-10T18:38:34.270Z,101942.09
2022-11-10T18:41:24.563Z,101941.63
2022-11-10T18:43:52.408Z,101948.09
2022-11-10T18:46:21.403Z,101953.41
2022-11-10T18:48:50.549Z,101949.84
2022-11-10T18:51:18.272Z,101950.50
2022-11-10T18:53:46.009Z,101947.69
2022-11-10T18:56:14.319Z,101947.34
2022-11-10T18:58:42.564Z,101946.94
2022-11-10T19:01:11.679Z,101944.31
2022-11-10T19:03:39.650Z,101941.41
2022-11-10T19:06:09.488Z,101940.53
2022-11-10T19:08:37.406Z,101947.75
2022-11-10T19:11:07.279Z,101956.28
2022-11-10T19:13:35.348Z,101953.56
2022-11-10T19:16:05.139Z,101945.75
2022-11-10T19:18:32.878Z,101936.75
2022-11-10T19:21:05.441Z,101938.81
2022-11-10T19:23:35.287Z,101954.59
2022-11-10T19:26:03.615Z,101958.31
2022-11-10T19:28:31.373Z,101962.44
2022-11-10T19:31:02.513Z,101971.47
2022-11-10T19:33:31.667Z,101971.00
2022-11-10T19:36:03.173Z,101974.31
2022-11-10T19:38:31.263Z,101968.53
2022-11-10T19:41:04.867Z,101966.19
2022-11-10T19:43:32.920Z,101967.56
2022-11-10T19:46:09.506Z,101956.13
2022-11-10T19:48:47.126Z,101952.09
2022-11-10T19:51:16.951Z,101950.03
2022-11-10T19:53:46.290Z,101952.75
2022-11-10T19:56:20.017Z,101968.47
2022-11-10T19:58:48.975Z,101975.41
2022-11-10T20:01:18.378Z,101983.75
2022-11-10T20:03:46.399Z,101982.41
2022-11-10T20:06:16.262Z,101991.94
2022-11-10T20:08:44.983Z,101996.53
2022-11-10T20:11:15.963Z,101998.91
2022-11-10T20:13:43.852Z,101991.28
2022-11-10T20:16:13.198Z,101991.28
2022-11-10T20:18:41.593Z,101992.72
2022-11-10T20:21:11.483Z,101985.25
2022-11-10T20:23:39.986Z,101986.59
2022-11-10T20:26:09.927Z,101983.19
2022-11-10T20:28:39.906Z,101987.66
2022-11-10T20:31:10.305Z,101995.50
2022-11-10T20:33:39.120Z,102004.91
2022-11-10T20:36:09.073Z,102002.00
2022-11-10T20:38:37.348Z,102010.97
2022-11-10T20:41:06.585Z,102015.19
2022-11-10T20:43:35.708Z,102008.25
2022-11-10T20:46:06.106Z,102019.69
2022-11-10T20:48:34.960Z,102014.81
2022-11-10T20:51:08.424Z,102016.47
2022-11-10T20:53:36.175Z,102019.75
2022-11-10T20:56:04.901Z,102006.81
2022-11-10T20:58:32.632Z,102001.75
2022-11-10T21:01:02.616Z,102009.00
2022-11-10T21:03:32.553Z,102014.19
2022-11-10T21:06:01.351Z,102013.31
2022-11-10T21:08:29.557Z,102018.91
2022-11-10T21:10:59.170Z,102017.44
2022-11-10T21:13:28.028Z,102029.66
2022-11-10T21:15:59.762Z,102031.53
2022-11-10T21:18:30.044Z,102042.72
2022-11-10T21:20:59.079Z,102042.03
2022-11-10T21:23:26.834Z,102041.38
2022-11-10T21:25:55.174Z,102046.81
2022-11-10T21:28:23.371Z,102045.97
2022-11-10T21:30:51.616Z,102041.88
2022-11-10T21:33:19.923Z,102049.34
2022-11-10T21:35:47.826Z,102049.34
2022-11-10T21:38:16.970Z,102045.78
2022-11-10T21:40:44.651Z,102052.59
2022-11-10T21:43:15.275Z,102045.09
2022-11-10T21:45:43.009Z,102055.13
2022-11-10T21:48:10.780Z,102056.88
2022-11-10T21:50:38.485Z,102053.78
2022-11-10T21:53:07.855Z,102050.72
2022-11-10T21:55:36.867Z,102061.56
2022-11-10T21:58:04.616Z,102061.72
2022-11-10T22:00:32.365Z,102062.41
2022-11-10T22:03:00.218Z,102059.38
2022-11-10T22:05:28.153Z,102077.34
2022-11-10T22:07:56.044Z,102072.09
2022-11-10T22:10:41.654Z,102076.16
2022-11-10T22:13:34.204Z,102072.75
2022-11-10T22:16:19.873Z,102066.00
2022-11-10T22:18:47.936Z,102061.44
2022-11-10T22:21:15.585Z,102056.53
2022-11-10T22:24:00.984Z,102056.19
2022-11-10T22:26:28.714Z,102063.81
2022-11-10T22:28:57.807Z,102067.38
2022-11-10T22:31:25.544Z,102067.25
2022-11-10T22:33:53.289Z,102068.72
2022-11-10T22:36:21.695Z,102075.19
2022-11-10T22:38:49.624Z,102078.25
2022-11-10T22:41:35.388Z,102086.22
2022-11-10T22:44:07.822Z,102090.63
2022-11-10T22:46:37.917Z,102092.50
2022-11-10T22:49:07.841Z,102088.25
2022-11-10T22:51:37.385Z,102085.00
2022-11-10T22:54:06.676Z,102085.00
2022-11-10T22:56:34.557Z,102095.19
2022-11-10T22:59:03.877Z,102108.78
2022-11-10T23:01:32.106Z,102103.34
2022-11-10T23:04:00.152Z,102109.59
2022-11-10T23:06:28.196Z,102119.28
2022-11-10T23:08:56.413Z,102115.88
2022-11-10T23:11:26.272Z,102128.44
2022-11-10T23:13:54.114Z,102129.63
2022-11-10T23:16:25.653Z,102124.38
2022-11-10T23:18:54.637Z,102129.28
2022-11-10T23:21:24.658Z,102131.16
2022-11-10T23:23:53.436Z,102139.31
2022-11-10T23:26:23.386Z,102149.63
2022-11-10T23:28:52.103Z,102139.13
2022-11-10T23:31:21.605Z,102138.63
2022-11-10T23:33:52.115Z,102144.38
2022-11-10T23:36:21.288Z,102135.38
2022-11-10T23:38:49.226Z,102142.69
2022-11-10T23:41:19.102Z,102128.44
2022-11-10T23:43:47.376Z,102130.13
2022-11-10T23:46:15.443Z,102125.22
2022-11-10T23:48:43.509Z,102106.06
2022-11-10T23:51:14.730Z,102101.34
2022-11-10T23:53:42.946Z,102097.91
2022-11-10T23:56:12.877Z,102104.69
2022-11-10T23:58:40.849Z,102117.25
